Time;durP1;ratioP1;P1;durP2;ratioP2;P2;SDS_P1;SDS_P2;PMS_P1;PMS_P2;Temp;Humidity;BMP_temperature;BMP_pressure;BME280_temperature;BME280_humidity;BME280_pressure;Samples;Min_cycle;Max_cycle;Signal;HPM_P1;HPM_P2
2020/12/09 00:00:07;;;;;;;38.10;23.70;;;;;;;-0.37;100.00;94736.63;1036551;28;20263;-73
2020/12/09 00:00:38;;;;;;;39.72;25.58;;;;;;;-0.44;100.00;94737.81;1032389;28;20109;-73
2020/12/09 00:01:09;;;;;;;38.97;25.05;;;;;;;-0.47;100.00;94736.22;1032312;28;20277;-73
2020/12/09 00:01:39;;;;;;;38.17;23.83;;;;;;;-0.43;100.00;94742.06;1028402;28;20254;-73
2020/12/09 00:02:10;;;;;;;41.05;25.55;;;;;;;-0.44;100.00;94746.34;1040496;28;20022;-73
2020/12/09 00:02:41;;;;;;;39.17;24.77;;;;;;;-0.40;100.00;94732.44;1036374;28;20025;-73
2020/12/09 00:03:12;;;;;;;36.80;23.60;;;;;;;-0.39;100.00;94738.44;1036428;28;20099;-73
2020/12/09 00:03:44;;;;;;;36.80;23.77;;;;;;;-0.39;100.00;94735.88;1040479;28;20493;-73
2020/12/09 00:04:17;;;;;;;41.28;25.70;;;;;;;-0.43;100.00;94732.59;1036534;28;20152;-73
2020/12/09 00:04:47;;;;;;;43.28;25.70;;;;;;;-0.59;100.00;94716.19;1036253;28;20364;-73
2020/12/09 00:05:18;;;;;;;41.08;24.67;;;;;;;-0.45;100.00;94729.25;1032315;28;20258;-73
2020/12/09 00:05:50;;;;;;;40.60;25.67;;;;;;;-0.43;100.00;94739.50;1036415;28;20022;-73
2020/12/09 00:06:20;;;;;;;43.17;26.40;;;;;;;-0.46;100.00;94735.31;1028340;28;20030;-73
2020/12/09 00:06:52;;;;;;;40.05;25.85;;;;;;;-0.45;100.00;94729.25;1032499;28;20734;-73
2020/12/09 00:07:23;;;;;;;40.90;25.05;;;;;;;-0.47;100.00;94725.94;1036537;28;20026;-73
2020/12/09 00:07:54;;;;;;;41.53;24.90;;;;;;;-0.46;100.00;94737.88;1044693;28;20247;-73
2020/12/09 00:08:24;;;;;;;43.78;26.42;;;;;;;-0.47;100.00;94749.09;1036390;28;20026;-73
2020/12/09 00:08:55;;;;;;;39.63;25.75;;;;;;;-0.47;100.00;94737.94;1032300;28;20026;-73
2020/12/09 00:09:26;;;;;;;39.78;25.45;;;;;;;-0.44;100.00;94742.94;1040543;28;20042;-73
2020/12/09 00:09:57;;;;;;;41.42;26.52;;;;;;;-0.46;100.00;94747.34;1032537;28;20060;-73
2020/12/09 00:10:27;;;;;;;42.20;26.13;;;;;;;-0.51;100.00;94744.13;1032352;28;20380;-73
2020/12/09 00:10:59;;;;;;;37.75;24.52;;;;;;;-0.48;100.00;94744.84;1032343;28;20026;-73
2020/12/09 00:11:30;;;;;;;42.42;25.98;;;;;;;-0.49;100.00;94750.91;1024381;29;20051;-73
2020/12/09 00:12:00;;;;;;;38.65;24.52;;;;;;;-0.53;100.00;94740.81;1024571;29;20259;-73
2020/12/09 00:12:31;;;;;;;40.55;25.40;;;;;;;-0.48;100.00;94744.00;1024274;29;20019;-73
2020/12/09 00:13:05;;;;;;;37.28;24.10;;;;;;;-0.48;100.00;94744.84;1024505;29;20029;-73
2020/12/09 00:13:38;;;;;;;40.53;24.80;;;;;;;-0.46;100.00;94747.34;1040568;28;20256;-73
2020/12/09 00:14:10;;;;;;;40.00;25.17;;;;;;;-0.54;100.00;94744.31;1036632;28;20264;-73
2020/12/09 00:14:40;;;;;;;41.38;25.00;;;;;;;-0.53;100.00;94748.53;1032370;28;20281;-73
2020/12/09 00:15:11;;;;;;;41.03;25.45;;;;;;;-0.54;100.00;94752.03;1032363;28;20022;-73
2020/12/09 00:15:42;;;;;;;42.10;25.65;;;;;;;-0.54;100.00;94752.84;1032560;28;20146;-73
2020/12/09 00:16:13;;;;;;;37.20;24.20;;;;;;;-0.53;100.00;94745.94;1040387;28;20068;-73
2020/12/09 00:16:44;;;;;;;39.35;25.02;;;;;;;-0.48;100.00;94749.16;1036468;28;20081;-73
2020/12/09 00:17:15;;;;;;;40.17;25.08;;;;;;;-0.55;100.00;94740.03;1036380;28;20026;-73
2020/12/09 00:17:45;;;;;;;41.05;25.55;;;;;;;-0.50;100.00;94745.81;1032390;28;20049;-73
2020/12/09 00:18:17;;;;;;;37.53;24.45;;;;;;;-0.44;100.00;94755.81;1036490;28;20100;-73
2020/12/09 00:18:47;;;;;;;36.67;23.60;;;;;;;-0.45;100.00;94755.00;1032261;28;20384;-73
2020/12/09 00:19:18;;;;;;;40.42;25.02;;;;;;;-0.41;100.00;94755.69;1032192;28;20265;-73
2020/12/09 00:19:49;;;;;;;37.83;23.52;;;;;;;-0.38;100.00;94749.56;1040475;28;20037;-72
2020/12/09 00:20:20;;;;;;;37.17;24.48;;;;;;;-0.43;100.00;94745.47;1032299;28;20034;-73
2020/12/09 00:20:51;;;;;;;42.88;26.42;;;;;;;-0.43;100.00;94747.22;1040262;28;20033;-73
2020/12/09 00:21:22;;;;;;;39.10;24.50;;;;;;;-0.40;100.00;94752.19;1032323;28;20033;-73
2020/12/09 00:21:54;;;;;;;42.15;25.08;;;;;;;-0.42;100.00;94747.13;1036285;28;20478;-73
2020/12/09 00:22:25;;;;;;;38.92;23.75;;;;;;;-0.38;100.00;94752.94;1032290;28;20268;-73
2020/12/09 00:22:56;;;;;;;39.83;25.05;;;;;;;-0.50;100.00;94738.09;1032271;28;20827;-73
2020/12/09 00:23:27;;;;;;;37.65;23.30;;;;;;;-0.38;100.00;94752.94;1036312;28;20347;-73
2020/12/09 00:23:57;;;;;;;37.63;24.80;;;;;;;-0.35;100.00;94752.00;1040548;28;20116;-73
2020/12/09 00:24:28;;;;;;;37.75;24.60;;;;;;;-0.33;100.00;94751.00;1032362;28;20057;-73
2020/12/09 00:24:59;;;;;;;39.47;24.42;;;;;;;-0.30;100.00;94758.59;1032156;28;20030;-73
2020/12/09 00:25:30;;;;;;;38.67;23.83;;;;;;;-0.31;100.00;94762.06;1035804;28;20116;-73
2020/12/09 00:26:01;;;;;;;40.28;24.63;;;;;;;-0.29;100.00;94759.41;1035709;28;20246;-72
2020/12/09 00:26:32;;;;;;;38.40;24.73;;;;;;;-0.32;100.00;94754.41;1024217;28;20024;-73
2020/12/09 00:27:03;;;;;;;37.90;24.10;;;;;;;-0.29;100.00;94759.41;1032284;28;20582;-73
2020/12/09 00:27:34;;;;;;;36.92;24.35;;;;;;;-0.28;100.00;94753.34;1040360;28;20256;-73
2020/12/09 00:28:05;;;;;;;38.03;25.23;;;;;;;-0.30;100.00;94745.72;1036340;28;20289;-73
2020/12/09 00:28:36;;;;;;;39.53;24.63;;;;;;;-0.30;100.00;94755.16;1028293;28;20435;-73
2020/12/09 00:29:07;;;;;;;36.15;23.33;;;;;;;-0.27;100.00;94758.44;1028220;28;20023;-73
2020/12/09 00:29:38;;;;;;;36.50;23.88;;;;;;;-0.25;100.00;94754.03;1028469;28;20258;-73
2020/12/09 00:30:09;;;;;;;36.42;23.55;;;;;;;-0.25;100.00;94754.03;1036258;28;20075;-72
2020/12/09 00:30:40;;;;;;;39.70;25.52;;;;;;;-0.29;100.00;94749.13;1028234;28;20093;-73
2020/12/09 00:31:13;;;;;;;36.08;23.73;;;;;;;-0.29;100.00;94755.09;1036338;28;20331;-73
2020/12/09 00:31:43;;;;;;;35.60;22.35;;;;;;;-0.24;100.00;94762.63;1036250;28;20022;-73
2020/12/09 00:32:14;;;;;;;35.90;22.33;;;;;;;-0.25;100.00;94754.03;1032167;28;20266;-73
2020/12/09 00:32:45;;;;;;;37.60;24.65;;;;;;;-0.23;100.00;94757.38;1036191;28;20025;-73
2020/12/09 00:33:16;;;;;;;36.53;23.77;;;;;;;-0.25;100.00;94764.34;1032346;28;20018;-73
2020/12/09 00:33:47;;;;;;;36.67;24.15;;;;;;;-0.27;100.00;94766.16;1036687;28;20014;-73
2020/12/09 00:34:18;;;;;;;40.97;24.92;;;;;;;-0.28;100.00;94767.06;1036623;28;20022;-72
2020/12/09 00:34:48;;;;;;;37.13;24.38;;;;;;;-0.29;100.00;94762.81;1032479;28;20121;-73
2020/12/09 00:35:19;;;;;;;38.22;23.88;;;;;;;-0.31;100.00;94761.22;1032497;28;20076;-73
2020/12/09 00:35:50;;;;;;;37.05;24.10;;;;;;;-0.26;100.00;94772.97;1028635;28;20061;-73
2020/12/09 00:36:21;;;;;;;37.75;24.98;;;;;;;-0.29;100.00;94774.88;1028676;28;20019;-73
2020/12/09 00:36:52;;;;;;;40.45;26.42;;;;;;;-0.33;100.00;94769.03;1024623;29;20158;-73
2020/12/09 00:37:23;;;;;;;37.25;23.33;;;;;;;-0.32;100.00;94770.69;1028670;28;20269;-73
2020/12/09 00:37:54;;;;;;;38.45;25.42;;;;;;;-0.33;100.00;94765.63;1032928;28;20738;-73
2020/12/09 00:38:25;;;;;;;37.60;25.30;;;;;;;-0.28;100.00;94771.38;1040719;28;20021;-73
2020/12/09 00:38:56;;;;;;;37.97;24.77;;;;;;;-0.29;100.00;94775.69;1037590;28;20017;-73
2020/12/09 00:39:27;;;;;;;38.13;24.13;;;;;;;-0.30;100.00;94763.75;1035291;28;20015;-73
2020/12/09 00:39:57;;;;;;;42.85;24.58;;;;;;;-0.27;100.00;94770.47;1034992;28;20325;-73
2020/12/09 00:40:28;;;;;;;36.70;23.75;;;;;;;-0.27;100.00;94763.56;1027167;29;20106;-72
2020/12/09 00:40:59;;;;;;;37.70;24.08;;;;;;;-0.27;100.00;94773.88;1038809;28;20027;-73
2020/12/09 00:41:30;;;;;;;36.05;23.08;;;;;;;-0.31;100.00;94758.66;1030528;28;20039;-72
2020/12/09 00:42:01;;;;;;;36.55;23.52;;;;;;;-0.22;100.00;94771.94;1038438;28;20056;-73
2020/12/09 00:42:32;;;;;;;36.85;23.63;;;;;;;-0.20;100.00;94767.53;1034065;28;20022;-73
2020/12/09 00:43:05;;;;;;;38.20;24.23;;;;;;;-0.20;100.00;94766.72;1026234;28;20110;-73
2020/12/09 00:43:36;;;;;;;42.92;25.55;;;;;;;-0.25;100.00;94763.50;1030644;28;20643;-72
2020/12/09 00:44:07;;;;;;;40.45;25.38;;;;;;;-0.25;100.00;94771.22;1038691;28;20249;-73
2020/12/09 00:44:37;;;;;;;39.10;25.70;;;;;;;-0.28;100.00;94764.50;1030561;28;20025;-73
2020/12/09 00:45:08;;;;;;;38.97;24.38;;;;;;;-0.37;100.00;94746.09;1034478;28;20261;-72
2020/12/09 00:45:39;;;;;;;38.05;24.83;;;;;;;-0.27;100.00;94758.44;1038547;28;20022;-72
2020/12/09 00:46:18;;;;;;;41.33;25.20;;;;;;;-0.20;100.00;94769.28;1038340;28;20026;-72
2020/12/09 00:46:49;;;;;;;41.80;25.85;;;;;;;-0.29;100.00;94762.81;1038592;28;20045;-73
2020/12/09 00:47:20;;;;;;;38.60;24.17;;;;;;;-0.24;100.00;94768.59;1038626;28;20026;-73
2020/12/09 00:47:50;;;;;;;38.53;23.98;;;;;;;-0.25;100.00;94768.66;1038313;28;20018;-73
2020/12/09 00:48:22;;;;;;;43.53;25.90;;;;;;;-0.32;100.00;94767.28;1047033;28;20093;-73
2020/12/09 00:48:53;;;;;;;41.00;25.10;;;;;;;-0.36;100.00;94761.44;1038203;28;20010;-73
2020/12/09 00:49:24;;;;;;;45.40;26.73;;;;;;;-0.40;100.00;94760.75;1038413;28;20257;-73
2020/12/09 00:50:34;;;;;;;39.72;23.75;;;;;;;-0.48;100.00;94749.97;1038407;28;20395;-73
2020/12/09 00:51:05;;;;;;;41.72;25.15;;;;;;;-0.39;100.00;94753.88;1038550;28;20077;-72
2020/12/09 00:51:36;;;;;;;44.80;25.73;;;;;;;-0.40;100.00;94757.34;1037862;28;20106;-72
2020/12/09 00:52:07;;;;;;;46.00;26.98;;;;;;;-0.41;100.00;94758.25;1036931;28;20074;-72
2020/12/09 00:52:38;;;;;;;45.00;25.55;;;;;;;-0.40;100.00;94758.16;1044384;28;20685;-72
2020/12/09 00:53:09;;;;;;;43.97;26.45;;;;;;;-0.40;100.00;94760.75;1036408;28;20076;-73
2020/12/09 00:53:40;;;;;;;45.20;26.75;;;;;;;-0.46;100.00;94755.88;1036188;28;20335;-72
2020/12/09 00:54:11;;;;;;;46.47;26.77;;;;;;;-0.42;100.00;94764.28;1032196;28;20112;-72
2020/12/09 00:54:42;;;;;;;43.55;26.67;;;;;;;-0.38;100.00;94759.84;1028289;28;20550;-72
2020/12/09 00:55:13;;;;;;;44.03;26.00;;;;;;;-0.35;100.00;94763.13;1040402;28;20482;-72
2020/12/09 00:55:43;;;;;;;44.00;25.98;;;;;;;-0.35;100.00;94765.69;1044457;28;20021;-72
2020/12/09 00:56:14;;;;;;;41.63;25.55;;;;;;;-0.37;100.00;94764.94;1036385;28;20018;-72
2020/12/09 00:56:45;;;;;;;40.22;24.52;;;;;;;-0.35;100.00;94765.69;1036232;28;20021;-73
2020/12/09 00:57:21;;;;;;;44.10;27.20;;;;;;;-0.34;100.00;94759.63;1032101;28;20014;-73
2020/12/09 00:57:52;;;;;;;43.25;25.15;;;;;;;-0.36;100.00;94768.31;1036242;28;20025;-73
2020/12/09 00:58:23;;;;;;;44.55;26.08;;;;;;;-0.35;100.00;94760.53;1032130;28;20250;-72
2020/12/09 00:58:54;;;;;;;43.20;24.92;;;;;;;-0.34;100.00;94766.50;1028089;28;20030;-73
2020/12/09 00:59:25;;;;;;;45.17;26.83;;;;;;;-0.33;100.00;94766.44;1036406;28;20018;-73
2020/12/09 00:59:56;;;;;;;41.58;26.73;;;;;;;-0.35;100.00;94764.88;1036183;28;20022;-73
2020/12/09 01:00:26;;;;;;;42.90;26.00;;;;;;;-0.36;100.00;94769.16;1032278;28;20076;-73
2020/12/09 01:00:57;;;;;;;40.80;24.90;;;;;;;-0.34;100.00;94769.09;1031941;28;20014;-73
2020/12/09 01:01:28;;;;;;;41.88;25.77;;;;;;;-0.34;100.00;94769.09;1028074;28;20031;-73
2020/12/09 01:01:59;;;;;;;41.55;25.38;;;;;;;-0.37;100.00;94764.09;1032144;28;20068;-72
2020/12/09 01:02:30;;;;;;;43.72;26.00;;;;;;;-0.33;100.00;94774.16;1040330;28;20024;-73
2020/12/09 01:03:03;;;;;;;47.15;27.85;;;;;;;-0.37;100.00;94766.69;1036111;28;20018;-73
2020/12/09 01:03:34;;;;;;;40.67;25.73;;;;;;;-0.32;100.00;94767.28;1036101;28;20022;-73
2020/12/09 01:04:05;;;;;;;42.53;25.30;;;;;;;-0.38;100.00;94775.28;1028399;28;20253;-73
2020/12/09 01:04:36;;;;;;;44.65;26.60;;;;;;;-0.41;100.00;94764.22;1032097;28;20451;-73
2020/12/09 01:05:08;;;;;;;40.75;25.75;;;;;;;-0.34;100.00;94766.50;1036109;28;20255;-73
2020/12/09 01:05:39;;;;;;;43.80;27.45;;;;;;;-0.34;100.00;94772.50;1032173;28;20014;-73
2020/12/09 01:06:09;;;;;;;41.97;25.77;;;;;;;-0.34;100.00;94772.50;1036385;28;20260;-73
2020/12/09 01:06:40;;;;;;;42.03;25.48;;;;;;;-0.33;100.00;94766.44;1036193;28;20018;-73
2020/12/09 01:07:11;;;;;;;43.78;26.92;;;;;;;-0.33;100.00;94773.34;1044413;28;20021;-73
2020/12/09 01:07:43;;;;;;;43.45;26.23;;;;;;;-0.33;100.00;94779.31;1036225;28;20037;-73
2020/12/09 01:08:14;;;;;;;42.30;26.58;;;;;;;-0.35;100.00;94778.56;1032297;28;20019;-73
2020/12/09 01:08:45;;;;;;;40.78;25.48;;;;;;;-0.33;100.00;94774.16;1032094;28;20641;-72
2020/12/09 01:09:15;;;;;;;43.08;26.83;;;;;;;-0.32;100.00;94777.56;1028148;28;20396;-73
2020/12/09 01:09:46;;;;;;;45.85;27.40;;;;;;;-0.32;100.00;94780.13;1036210;28;20147;-73
2020/12/09 01:10:17;;;;;;;40.10;25.75;;;;;;;-0.32;100.00;94781.00;1040403;28;20101;-73
2020/12/09 01:10:48;;;;;;;40.40;24.73;;;;;;;-0.35;100.00;94782.88;1032041;28;20018;-73
2020/12/09 01:11:21;;;;;;;45.70;27.08;;;;;;;-0.33;100.00;94787.03;1036097;28;20045;-73
2020/12/09 01:11:52;;;;;;;42.00;26.35;;;;;;;-0.32;100.00;94775.84;1036119;28;20181;-72
2020/12/09 01:12:23;;;;;;;45.15;26.88;;;;;;;-0.26;100.00;94777.31;1032073;28;20778;-73
2020/12/09 01:12:53;;;;;;;40.08;25.70;;;;;;;-0.23;100.00;94783.09;1040167;28;20044;-73
2020/12/09 01:13:24;;;;;;;40.28;25.23;;;;;;;-0.21;100.00;94783.91;1036053;28;20116;-73
2020/12/09 01:13:55;;;;;;;43.47;26.02;;;;;;;-0.20;100.00;94789.88;1044352;28;20535;-73
2020/12/09 01:14:25;;;;;;;43.97;26.73;;;;;;;-0.27;100.00;94786.75;1032163;28;20104;-73
2020/12/09 01:14:56;;;;;;;41.55;25.23;;;;;;;-0.28;100.00;94785.09;1040098;28;20445;-73
2020/12/09 01:15:27;;;;;;;40.30;24.75;;;;;;;-0.21;100.00;94793.34;1036260;28;20451;-73
2020/12/09 01:15:57;;;;;;;39.55;24.42;;;;;;;-0.20;100.00;94793.28;1032005;28;20109;-73
2020/12/09 01:16:28;;;;;;;41.22;25.20;;;;;;;-0.22;100.00;94792.50;1032046;28;20034;-73
2020/12/09 01:17:00;;;;;;;39.97;25.60;;;;;;;-0.21;100.00;94794.19;1028026;28;20043;-73
2020/12/09 01:17:30;;;;;;;39.72;25.15;;;;;;;-0.20;100.00;94792.44;1032190;28;20022;-73
2020/12/09 01:18:01;;;;;;;38.15;25.65;;;;;;;-0.23;100.00;94790.84;1028237;28;20757;-73
2020/12/09 01:18:32;;;;;;;41.13;24.92;;;;;;;-0.23;100.00;94795.16;1036268;28;20022;-73
2020/12/09 01:19:03;;;;;;;39.97;26.35;;;;;;;-0.18;100.00;94800.09;1036004;28;20029;-73
2020/12/09 01:19:34;;;;;;;39.55;25.33;;;;;;;-0.18;100.00;94807.81;1036208;28;20112;-73
2020/12/09 01:20:05;;;;;;;40.28;24.95;;;;;;;-0.20;100.00;94801.00;1028153;28;20023;-73
2020/12/09 01:20:35;;;;;;;39.25;24.85;;;;;;;-0.18;100.00;94810.41;1036049;28;20022;-73
2020/12/09 01:21:06;;;;;;;43.28;26.42;;;;;;;-0.22;100.00;94809.72;1036056;28;20026;-73
2020/12/09 01:21:37;;;;;;;41.60;26.30;;;;;;;-0.17;100.00;94809.47;1040280;28;20067;-73
2020/12/09 01:22:08;;;;;;;43.67;26.92;;;;;;;-0.25;100.00;94808.09;1040176;28;20029;-73
2020/12/09 01:22:39;;;;;;;38.08;23.67;;;;;;;-0.19;100.00;94806.97;1028196;28;20019;-73
2020/12/09 01:23:55;;;;;;;42.33;25.23;;;;;;;-0.13;100.00;94819.59;1029576;28;20664;-71
2020/12/09 01:24:26;;;;;;;40.63;25.05;;;;;;;-0.10;100.00;94822.00;1036255;28;20275;-72
2020/12/09 01:24:57;;;;;;;40.28;26.08;;;;;;;-0.15;100.00;94817.97;1020308;29;20247;-71
2020/12/09 01:25:28;;;;;;;39.90;24.52;;;;;;;-0.14;100.00;94819.66;1032302;28;20105;-71
2020/12/09 01:25:59;;;;;;;39.22;25.52;;;;;;;-0.12;100.00;94816.09;1036127;28;20285;-72
2020/12/09 01:26:29;;;;;;;43.20;24.98;;;;;;;-0.09;100.00;94822.84;1032234;28;20026;-73
2020/12/09 01:27:00;;;;;;;44.78;24.75;;;;;;;-0.12;100.00;94817.84;1036163;28;20519;-71
2020/12/09 01:27:31;;;;;;;43.80;24.77;;;;;;;-0.11;100.00;94817.75;1032165;28;20030;-74
2020/12/09 01:28:03;;;;;;;41.20;25.58;;;;;;;-0.10;100.00;94818.59;1028178;28;20415;-72
2020/12/09 01:28:34;;;;;;;44.03;26.40;;;;;;;-0.09;100.00;94821.09;1032506;28;20052;-72
2020/12/09 01:29:04;;;;;;;40.78;26.02;;;;;;;-0.12;100.00;94826.38;1028206;28;20301;-73
2020/12/09 01:29:35;;;;;;;43.25;26.30;;;;;;;-0.11;100.00;94828.06;1028154;28;20081;-71
2020/12/09 01:30:06;;;;;;;41.80;25.52;;;;;;;-0.12;100.00;94831.53;1032242;28;20029;-71
2020/12/09 01:30:37;;;;;;;41.38;25.85;;;;;;;-0.09;100.00;94828.81;1028267;28;20023;-72
2020/12/09 01:31:07;;;;;;;40.90;25.65;;;;;;;-0.06;100.00;94827.84;1040120;28;20560;-72
2020/12/09 01:31:38;;;;;;;43.70;26.00;;;;;;;-0.05;100.00;94830.34;1036298;28;20067;-72
2020/12/09 01:32:09;;;;;;;48.47;26.98;;;;;;;-0.09;100.00;94830.56;1032272;28;20418;-73
2020/12/09 01:32:40;;;;;;;40.95;24.88;;;;;;;-0.14;100.00;94822.22;1032200;28;20026;-72
2020/12/09 01:33:11;;;;;;;39.17;24.48;;;;;;;-0.12;100.00;94820.41;1040432;28;20026;-74
2020/12/09 01:33:42;;;;;;;37.20;24.15;;;;;;;-0.08;100.00;94827.91;1032215;28;20474;-71
2020/12/09 01:34:13;;;;;;;42.42;25.83;;;;;;;-0.10;100.00;94827.13;1032131;28;20057;-73
2020/12/09 01:34:43;;;;;;;41.88;26.40;;;;;;;-0.08;100.00;94830.47;1028192;28;20067;-74
2020/12/09 01:35:14;;;;;;;45.22;26.75;;;;;;;-0.05;100.00;94834.66;1036112;28;20826;-74
2020/12/09 01:35:45;;;;;;;39.80;25.52;;;;;;;-0.13;100.00;94829.03;1024092;29;20135;-74
2020/12/09 01:36:23;;;;;;;42.75;25.77;;;;;;;-0.09;100.00;94838.28;1024201;29;20050;-72
2020/12/09 01:36:54;;;;;;;41.20;24.85;;;;;;;-0.08;100.00;94838.19;1027934;28;20068;-72
2020/12/09 01:37:25;;;;;;;40.80;24.90;;;;;;;-0.12;100.00;94835.84;1036040;28;20311;-73
2020/12/09 01:37:56;;;;;;;42.17;25.40;;;;;;;-0.08;100.00;94842.53;1032148;28;20274;-71
2020/12/09 01:38:27;;;;;;;41.47;24.23;;;;;;;-0.07;100.00;94839.88;1032220;28;20077;-71
2020/12/09 01:38:57;;;;;;;42.67;24.45;;;;;;;-0.06;100.00;94838.97;1027957;28;20027;-71
2020/12/09 01:39:28;;;;;;;37.92;24.10;;;;;;;-0.03;100.00;94841.41;1028109;28;20027;-72
2020/12/09 01:39:59;;;;;;;40.58;24.40;;;;;;;-0.09;100.00;94843.44;1024053;29;20455;-72
2020/12/09 01:40:29;;;;;;;42.97;25.65;;;;;;;-0.13;100.00;94835.03;1028097;28;20447;-72
2020/12/09 01:41:00;;;;;;;40.50;25.58;;;;;;;-0.09;100.00;94838.28;1023891;28;20036;-72
2020/12/09 01:41:31;;;;;;;41.25;24.00;;;;;;;-0.04;100.00;94842.31;1032283;28;20018;-72
2020/12/09 01:42:03;;;;;;;48.15;27.63;;;;;;;-0.04;100.00;94838.91;1032146;28;20023;-72
2020/12/09 01:42:34;;;;;;;39.40;24.58;;;;;;;-0.10;100.00;94846.91;1024003;29;20019;-72
2020/12/09 01:43:04;;;;;;;42.15;27.08;;;;;;;-0.14;100.00;94843.63;1031897;28;20266;-72
2020/12/09 01:43:44;;;;;;;41.63;25.85;;;;;;;-0.06;100.00;94838.13;1032114;28;20040;-72
2020/12/09 01:44:15;;;;;;;39.63;25.50;;;;;;;-0.09;100.00;94838.28;1036400;28;20022;-71
2020/12/09 01:44:46;;;;;;;39.42;23.92;;;;;;;-0.04;100.00;94834.59;1023873;29;20050;-72
2020/12/09 01:45:18;;;;;;;39.75;23.98;;;;;;;-0.08;100.00;94835.63;1032136;28;20110;-71
2020/12/09 01:45:48;;;;;;;44.83;26.65;;;;;;;-0.09;100.00;94831.41;1024008;28;20119;-72
2020/12/09 01:46:24;;;;;;;41.45;25.23;;;;;;;-0.14;100.00;94835.91;1032119;28;20277;-72
2020/12/09 01:46:55;;;;;;;41.17;25.05;;;;;;;-0.13;100.00;94832.44;1028012;28;20055;-72
2020/12/09 01:47:26;;;;;;;42.67;25.98;;;;;;;-0.17;100.00;94820.59;1036004;28;20260;-71
2020/12/09 01:47:57;;;;;;;41.08;24.60;;;;;;;-0.06;100.00;94831.22;1036089;28;20648;-71
2020/12/09 01:48:28;;;;;;;39.15;24.55;;;;;;;-0.04;100.00;94828.59;1028145;28;20525;-72
2020/12/09 01:48:59;;;;;;;39.85;23.92;;;;;;;-0.06;100.00;94830.41;1031946;28;20284;-71
2020/12/09 01:49:31;;;;;;;40.20;24.65;;;;;;;-0.01;100.00;94833.63;1032163;28;20484;-71
2020/12/09 01:50:02;;;;;;;41.70;24.98;;;;;;;-0.04;100.00;94831.16;1031941;28;20284;-72
2020/12/09 01:50:33;;;;;;;41.85;25.45;;;;;;;-0.06;100.00;94832.97;1028642;28;20269;-70
2020/12/09 01:51:04;;;;;;;43.00;25.48;;;;;;;-0.08;100.00;94821.94;1028956;28;20141;-70
2020/12/09 01:51:34;;;;;;;40.05;25.05;;;;;;;-0.04;100.00;94820.88;1029364;28;20445;-70
2020/12/09 01:52:05;;;;;;;42.40;25.67;;;;;;;-0.06;100.00;94822.69;1033148;28;20010;-70
2020/12/09 01:52:36;;;;;;;40.05;25.05;;;;;;;-0.05;100.00;94819.22;1029248;28;20019;-71
2020/12/09 01:53:07;;;;;;;39.47;23.55;;;;;;;-0.05;100.00;94822.63;1020831;29;20636;-70
2020/12/09 01:53:38;;;;;;;38.90;24.83;;;;;;;-0.03;100.00;94814.81;1025035;29;20078;-70
2020/12/09 01:54:09;;;;;;;44.78;27.40;;;;;;;-0.03;100.00;94813.06;1028997;28;20106;-70
2020/12/09 01:54:40;;;;;;;42.95;26.17;;;;;;;-0.01;100.00;94813.84;1033008;28;20652;-71
2020/12/09 01:55:11;;;;;;;41.85;25.58;;;;;;;-0.07;100.00;94810.72;1032903;28;20505;-70
2020/12/09 01:55:42;;;;;;;40.25;25.67;;;;;;;-0.01;100.00;94813.84;1032898;28;20159;-70
2020/12/09 01:56:13;;;;;;;38.13;23.60;;;;;;;-0.01;100.00;94819.00;1025460;29;20353;-71
2020/12/09 01:56:44;;;;;;;43.13;25.10;;;;;;;0.01;100.00;94811.19;1025304;29;20015;-71
2020/12/09 01:57:15;;;;;;;42.65;25.25;;;;;;;-0.03;100.00;94813.06;1028834;28;20583;-71
2020/12/09 01:57:46;;;;;;;40.65;26.50;;;;;;;-0.01;100.00;94815.59;1029237;28;20380;-71
2020/12/09 01:58:16;;;;;;;46.50;25.27;;;;;;;0.01;100.00;94813.78;1029158;28;20015;-72
2020/12/09 01:58:48;;;;;;;37.40;23.90;;;;;;;0.03;100.00;94816.28;1024659;29;20019;-71
2020/12/09 01:59:19;;;;;;;43.33;25.83;;;;;;;-0.01;100.00;94815.59;1033212;28;20030;-73
2020/12/09 01:59:50;;;;;;;40.38;24.50;;;;;;;-0.03;100.00;94820.81;1033008;28;20325;-70
2020/12/09 02:00:21;;;;;;;42.33;24.38;;;;;;;-0.02;100.00;94817.34;1029073;28;20023;-72
2020/12/09 02:00:54;;;;;;;38.53;24.08;;;;;;;-0.01;100.00;94820.72;1032935;28;20498;-71
2020/12/09 02:01:24;;;;;;;40.55;24.98;;;;;;;-0.04;100.00;94813.16;1021076;29;20031;-71
2020/12/09 02:01:55;;;;;;;42.50;25.83;;;;;;;-0.03;100.00;94817.41;1028552;28;20354;-72
2020/12/09 02:02:26;;;;;;;46.05;26.80;;;;;;;-0.04;100.00;94823.44;1028369;28;20019;-74
2020/12/09 02:02:57;;;;;;;42.97;26.08;;;;;;;-0.05;100.00;94814.88;1036445;28;20021;-72
2020/12/09 02:03:35;;;;;;;41.17;25.85;;;;;;;-0.08;100.00;94807.31;1028599;28;20266;-72
2020/12/09 02:04:05;;;;;;;46.38;27.23;;;;;;;-0.01;100.00;94821.56;1024260;29;20086;-71
2020/12/09 02:04:37;;;;;;;41.72;26.23;;;;;;;-0.11;100.00;94810.03;1028300;28;20250;-72
2020/12/09 02:05:08;;;;;;;44.95;26.20;;;;;;;-0.07;100.00;94826.19;1032165;28;20091;-71
2020/12/09 02:05:38;;;;;;;41.63;26.20;;;;;;;-0.01;100.00;94820.72;1028032;28;20262;-72
2020/12/09 02:06:09;;;;;;;43.05;26.50;;;;;;;-0.02;100.00;94821.63;1028489;28;20245;-72
2020/12/09 02:06:40;;;;;;;47.05;27.15;;;;;;;-0.01;100.00;94825.88;1028123;28;20025;-73
2020/12/09 02:07:13;;;;;;;44.63;26.08;;;;;;;-0.07;100.00;94827.00;1031992;28;20460;-72
2020/12/09 02:07:45;;;;;;;42.30;26.23;;;;;;;-0.06;100.00;94820.94;1028226;28;20019;-73
2020/12/09 02:08:17;;;;;;;44.08;26.33;;;;;;;-0.07;100.00;94824.44;1020516;29;20263;-72
2020/12/09 02:08:47;;;;;;;45.47;27.35;;;;;;;-0.02;100.00;94827.63;1032077;28;20049;-71
2020/12/09 02:09:19;;;;;;;43.05;26.15;;;;;;;-0.03;100.00;94831.09;1020351;29;20315;-73
2020/12/09 02:10:00;;;;;;;46.13;27.95;;;;;;;-0.07;100.00;94828.75;1028382;28;20022;-73
2020/12/09 02:10:31;;;;;;;43.22;26.45;;;;;;;-0.05;100.00;94822.63;1024419;28;20270;-71
2020/12/09 02:11:03;;;;;;;42.13;25.05;;;;;;;-0.07;100.00;94824.44;1027977;28;20250;-75
2020/12/09 02:11:34;;;;;;;44.47;26.17;;;;;;;-0.03;100.00;94823.38;1028244;28;20474;-71
2020/12/09 02:12:07;;;;;;;41.75;24.77;;;;;;;0.00;100.00;94825.00;1028476;28;20262;-71
2020/12/09 02:12:39;;;;;;;45.10;26.98;;;;;;;-0.06;100.00;94825.25;1035954;28;20264;-72
2020/12/09 02:13:10;;;;;;;44.72;26.25;;;;;;;-0.04;100.00;94823.44;1024009;28;20086;-72
2020/12/09 02:13:42;;;;;;;45.28;26.25;;;;;;;0.01;100.00;94829.22;1035916;28;20348;-71
2020/12/09 02:14:13;;;;;;;46.60;27.80;;;;;;;0.00;100.00;94832.72;1032048;28;20119;-73
2020/12/09 02:14:44;;;;;;;46.03;26.25;;;;;;;0.00;100.00;94830.16;1027896;28;20366;-72
2020/12/09 02:15:15;;;;;;;44.45;25.80;;;;;;;0.02;100.00;94832.63;1024128;29;20057;-73
2020/12/09 02:15:46;;;;;;;43.75;25.65;;;;;;;-0.02;100.00;94830.22;1024003;29;20033;-73
2020/12/09 02:16:18;;;;;;;42.50;25.55;;;;;;;0.01;100.00;94824.06;1032064;28;20056;-72
2020/12/09 02:16:50;;;;;;;43.22;25.48;;;;;;;-0.02;100.00;94831.94;1031792;28;20498;-72
2020/12/09 02:17:21;;;;;;;43.60;26.08;;;;;;;0.00;100.00;94827.56;1035988;28;20352;-72
2020/12/09 02:17:51;;;;;;;42.33;25.05;;;;;;;-0.04;100.00;94831.16;1035974;28;20284;-73
2020/12/09 02:18:22;;;;;;;44.92;25.42;;;;;;;-0.05;100.00;94832.09;1028066;28;20022;-73
2020/12/09 02:18:53;;;;;;;45.92;26.30;;;;;;;-0.04;100.00;94831.16;1029911;28;20029;-72
2020/12/09 02:19:24;;;;;;;45.58;26.90;;;;;;;-0.09;100.00;94828.81;1032242;28;20101;-73
2020/12/09 02:19:55;;;;;;;42.85;26.30;;;;;;;-0.04;100.00;94836.31;1039374;28;20490;-73
2020/12/09 02:20:26;;;;;;;41.72;25.23;;;;;;;-0.05;100.00;94834.66;1030809;28;20266;-73
2020/12/09 02:20:57;;;;;;;45.90;27.63;;;;;;;0.02;100.00;94848.06;1031943;28;20026;-74
2020/12/09 02:21:33;;;;;;;45.00;26.50;;;;;;;-0.01;100.00;94857.59;1024407;29;20031;-73
2020/12/09 02:22:11;;;;;;;46.88;28.63;;;;;;;0.01;100.00;94849.00;1028461;28;20019;-73
2020/12/09 02:22:51;;;;;;;44.90;26.15;;;;;;;-0.07;100.00;94847.59;1032115;28;20363;-72
2020/12/09 02:23:22;;;;;;;42.72;25.67;;;;;;;-0.02;100.00;94855.09;1024108;28;20310;-74